Time;durP1;ratioP1;P1;durP2;ratioP2;P2;SDS_P1;SDS_P2;PMS_P1;PMS_P2;Temp;Humidity;BMP_temperature;BMP_pressure;BME280_temperature;BME280_humidity;BME280_pressure;Samples;Min_cycle;Max_cycle;Signal;HPM_P1;HPM_P2
2022/07/06 00:00:12;;;;;;;5.05;3.20;;;;;;;21.06;63.86;99794.63;4397402;32;33663;-86
2022/07/06 00:02:41;;;;;;;5.55;3.10;;;;;;;20.73;65.16;99786.81;4368074;32;33809;-87
2022/07/06 00:05:12;;;;;;;3.42;3.08;;;;;;;20.90;64.44;99787.06;4375945;32;33300;-87
2022/07/06 00:07:40;;;;;;;4.72;3.12;;;;;;;21.02;64.21;99793.19;4410658;32;33246;-86
2022/07/06 00:10:08;;;;;;;10.10;5.43;;;;;;;21.19;63.47;99797.94;4380051;32;277466;-86
2022/07/06 00:12:35;;;;;;;3.55;3.25;;;;;;;21.14;63.42;99796.63;4408863;32;33646;-87
2022/07/06 00:15:03;;;;;;;4.12;3.42;;;;;;;20.91;64.38;99795.97;4410359;32;34713;-86
2022/07/06 00:17:31;;;;;;;3.83;3.53;;;;;;;21.09;63.77;99786.31;4410569;32;34168;-86
2022/07/06 00:19:59;;;;;;;3.75;3.40;;;;;;;20.85;64.58;99786.59;4410638;32;32360;-87
2022/07/06 00:22:27;;;;;;;3.65;3.15;;;;;;;21.01;64.20;99794.16;4403901;32;33826;-87
2022/07/06 00:24:55;;;;;;;3.95;3.10;;;;;;;20.98;64.00;99789.06;4382438;32;33086;-87
2022/07/06 00:27:22;;;;;;;3.70;3.28;;;;;;;20.73;65.20;99784.12;4401564;32;33611;-86
2022/07/06 00:29:50;;;;;;;3.80;3.40;;;;;;;20.76;65.25;99784.72;4409653;32;33007;-87
2022/07/06 00:32:18;;;;;;;4.53;2.97;;;;;;;20.92;64.39;99781.53;4407456;32;33526;-87
2022/07/06 00:34:46;;;;;;;3.92;3.53;;;;;;;21.13;63.41;99787.75;4400767;32;34697;-87
2022/07/06 00:37:16;;;;;;;4.57;3.45;;;;;;;20.83;64.70;99780.50;4400097;32;34451;-86
2022/07/06 00:39:43;;;;;;;6.18;3.45;;;;;;;21.08;63.46;99784.59;4401070;32;33307;-87
2022/07/06 00:42:14;;;;;;;4.03;3.50;;;;;;;20.64;65.08;99789.28;4382996;32;33009;-86
2022/07/06 00:44:43;;;;;;;3.83;3.42;;;;;;;20.68;65.00;99790.72;4418761;32;34426;-87
2022/07/06 00:47:11;;;;;;;5.15;3.15;;;;;;;20.71;64.89;99786.94;4397659;32;32618;-84
2022/07/06 00:52:38;;;;;;;6.95;3.60;;;;;;;20.81;64.57;99781.63;4386445;32;33870;-84
2022/07/06 00:55:07;;;;;;;4.10;3.70;;;;;;;20.93;63.85;99781.41;4407998;32;33126;-84
2022/07/06 00:57:35;;;;;;;5.15;3.35;;;;;;;21.00;63.67;99779.06;4401778;32;33532;-84
2022/07/06 01:00:06;;;;;;;5.78;3.42;;;;;;;21.27;62.65;99774.91;4381074;32;33433;-84
2022/07/06 01:02:35;;;;;;;3.83;3.35;;;;;;;21.17;62.87;99766.81;4380694;32;32751;-85
2022/07/06 01:05:07;;;;;;;3.47;3.25;;;;;;;21.04;63.61;99768.91;4402163;32;34851;-85
2022/07/06 01:07:36;;;;;;;3.42;3.12;;;;;;;21.25;62.47;99769.69;4377407;32;33807;-85
2022/07/06 01:10:04;;;;;;;3.95;2.97;;;;;;;21.47;61.85;99765.97;4407157;32;33068;-84
2022/07/06 01:12:34;;;;;;;3.30;2.92;;;;;;;21.21;62.65;99769.09;4416660;32;33157;-84
2022/07/06 01:15:04;;;;;;;2.92;2.72;;;;;;;21.11;63.14;99768.22;4400711;32;33340;-85
2022/07/06 01:17:33;;;;;;;5.37;3.40;;;;;;;21.17;63.08;99773.06;4407253;32;34799;-86
2022/07/06 01:20:07;;;;;;;4.87;3.20;;;;;;;21.22;62.74;99776.19;4382237;32;32457;-86
2022/07/06 01:22:35;;;;;;;6.57;3.70;;;;;;;21.24;62.83;99778.72;4407383;32;34583;-86
2022/07/06 01:25:05;;;;;;;5.90;2.97;;;;;;;21.18;62.82;99780.13;4394541;32;33563;-86
2022/07/06 01:27:38;;;;;;;5.07;3.25;;;;;;;21.18;62.81;99780.13;4407107;32;34292;-87
2022/07/06 01:30:14;;;;;;;3.75;3.37;;;;;;;21.33;62.20;99767.22;4395004;32;33138;-87
2022/07/06 01:32:43;;;;;;;3.62;3.33;;;;;;;20.94;63.40;99782.28;4381927;32;33035;-86
2022/07/06 01:35:13;;;;;;;7.22;3.80;;;;;;;20.60;64.55;99784.31;4396119;32;33829;-92
2022/07/06 01:37:44;;;;;;;4.10;3.70;;;;;;;20.80;63.87;99778.09;4389937;32;33245;-91
2022/07/06 01:40:38;;;;;;;4.90;3.55;;;;;;;20.76;64.16;99783.88;4367886;32;33600;-91
2022/07/06 01:43:25;;;;;;;5.97;3.40;;;;;;;20.66;64.32;99784.66;4380636;32;32233;-89
2022/07/06 01:45:54;;;;;;;3.92;3.62;;;;;;;20.38;65.48;99779.91;4401722;32;34053;-89
2022/07/06 01:48:28;;;;;;;4.62;2.97;;;;;;;20.18;66.14;99771.72;4392750;32;33182;-89
2022/07/06 01:50:57;;;;;;;5.22;3.90;;;;;;;20.36;65.51;99771.13;4404070;32;32654;-88
2022/07/06 01:53:26;;;;;;;3.80;3.42;;;;;;;20.26;65.81;99781.78;4379924;32;34063;-89
2022/07/06 01:55:55;;;;;;;5.70;4.05;;;;;;;20.10;66.64;99776.03;4405483;32;33615;-89
2022/07/06 01:58:24;;;;;;;5.43;4.47;;;;;;;20.24;65.70;99774.88;4390840;32;33808;-88
2022/07/06 02:00:53;;;;;;;4.05;3.75;;;;;;;19.93;66.72;99780.94;4396567;32;32085;-88
2022/07/06 02:03:21;;;;;;;4.93;3.97;;;;;;;19.71;67.56;99791.75;4384677;32;32767;-89
2022/07/06 02:05:51;;;;;;;7.78;3.75;;;;;;;20.32;65.39;99796.50;4396051;32;33881;-89
2022/07/06 02:08:21;;;;;;;6.80;4.60;;;;;;;19.76;67.84;99794.06;4406117;32;32398;-89
2022/07/06 02:10:50;;;;;;;4.28;3.90;;;;;;;19.74;67.50;99793.31;4376391;32;33501;-89
2022/07/06 02:13:19;;;;;;;4.93;4.50;;;;;;;19.82;67.22;99796.22;4388158;32;33734;-89
2022/07/06 02:15:48;;;;;;;5.43;4.85;;;;;;;19.87;67.19;99807.41;4394887;32;33275;-88
2022/07/06 02:18:16;;;;;;;4.55;4.18;;;;;;;19.72;67.48;99809.53;4389675;32;32698;-87
2022/07/06 02:20:44;;;;;;;4.68;4.28;;;;;;;19.72;67.82;99814.03;4387157;32;31936;-86
2022/07/06 02:23:11;;;;;;;5.15;4.65;;;;;;;19.88;67.46;99814.47;4403714;32;32986;-86
2022/07/06 02:25:39;;;;;;;5.37;4.65;;;;;;;19.73;67.88;99816.56;4381369;32;33249;-86
2022/07/06 02:28:07;;;;;;;5.80;4.75;;;;;;;19.89;67.33;99816.16;4391555;32;32928;-86
2022/07/06 02:30:35;;;;;;;6.72;4.62;;;;;;;19.89;67.42;99813.47;4392067;32;33321;-87
2022/07/06 02:33:06;;;;;;;6.05;4.93;;;;;;;20.14;66.33;99799.78;4389639;32;33621;-87
2022/07/06 02:35:34;;;;;;;5.87;4.43;;;;;;;19.92;67.06;99791.81;4402399;32;33127;-85
2022/07/06 02:38:02;;;;;;;8.85;5.65;;;;;;;19.85;67.60;99787.94;4395251;32;34163;-87
2022/07/06 02:40:31;;;;;;;5.87;4.72;;;;;;;19.65;68.14;99792.22;4398101;32;32455;-86
2022/07/06 02:43:00;;;;;;;6.50;4.62;;;;;;;20.07;66.55;99797.72;4408984;32;33937;-86
2022/07/06 02:45:28;;;;;;;5.40;4.90;;;;;;;19.78;67.49;99800.12;4391059;32;33802;-86
2022/07/06 02:47:57;;;;;;;6.22;5.00;;;;;;;19.95;67.09;99799.59;4381002;32;33514;-85
2022/07/06 02:50:26;;;;;;;5.57;5.07;;;;;;;19.90;67.33;99809.84;4381537;32;33388;-85
2022/07/06 02:52:55;;;;;;;5.60;5.20;;;;;;;20.11;66.43;99809.87;4394357;32;33969;-85
2022/07/06 02:55:22;;;;;;;6.05;5.22;;;;;;;19.70;67.98;99816.81;4395598;32;34792;-85
2022/07/06 02:57:52;;;;;;;6.00;4.95;;;;;;;19.97;67.23;99826.25;4383320;32;32712;-85
2022/07/06 03:00:20;;;;;;;6.82;5.12;;;;;;;19.97;67.24;99821.75;4395804;32;34065;-85
2022/07/06 03:02:48;;;;;;;8.07;5.57;;;;;;;19.97;66.88;99823.59;4395443;32;34147;-85
2022/07/06 03:05:18;;;;;;;6.10;5.50;;;;;;;20.16;66.56;99829.12;4394968;32;33864;-84
2022/07/06 03:07:46;;;;;;;9.32;5.07;;;;;;;20.36;65.52;99846.22;4403434;32;32960;-88
2022/07/06 03:10:14;;;;;;;7.50;4.90;;;;;;;19.95;66.92;99842.47;4375562;32;31842;-87
2022/07/06 03:12:42;;;;;;;6.70;5.32;;;;;;;20.31;65.90;99840.41;4378644;32;33726;-89
2022/07/06 03:15:13;;;;;;;4.85;4.45;;;;;;;20.32;65.69;99844.78;4370636;32;33001;-90
2022/07/06 03:17:50;;;;;;;6.60;4.62;;;;;;;20.32;65.64;99839.41;4396066;32;33905;-84
2022/07/06 03:20:18;;;;;;;6.20;5.50;;;;;;;20.26;66.09;99839.94;4394909;32;33529;-85
2022/07/06 03:22:47;;;;;;;6.43;4.85;;;;;;;20.14;66.60;99844.50;4378841;32;34680;-85
2022/07/06 03:25:18;;;;;;;6.70;4.90;;;;;;;20.53;64.85;99852.91;4396286;32;32884;-87
2022/07/06 03:27:47;;;;;;;4.62;4.18;;;;;;;20.14;65.93;99853.38;4367952;32;32748;-87
2022/07/06 03:30:16;;;;;;;4.90;4.50;;;;;;;19.94;67.06;99872.94;4395313;32;32718;-88
2022/07/06 03:32:45;;;;;;;5.40;4.53;;;;;;;20.38;65.50;99877.31;4368010;32;33116;-87
2022/07/06 03:35:14;;;;;;;5.72;4.87;;;;;;;20.18;66.14;99870.94;4380267;32;33125;-86
2022/07/06 03:37:42;;;;;;;5.37;4.75;;;;;;;20.33;65.54;99871.47;4388484;32;33428;-87
2022/07/06 03:40:11;;;;;;;4.90;4.50;;;;;;;20.20;65.76;99871.63;4376431;32;33417;-86
2022/07/06 03:42:39;;;;;;;4.50;4.10;;;;;;;20.34;65.70;99870.50;4384652;32;32990;-87
2022/07/06 03:45:08;;;;;;;5.20;4.70;;;;;;;20.20;66.45;99866.28;4407587;32;33678;-88
2022/07/06 03:47:37;;;;;;;6.37;4.97;;;;;;;20.32;65.58;99861.75;4391201;32;34044;-87
2022/07/06 03:50:06;;;;;;;5.22;4.47;;;;;;;20.46;65.02;99852.50;4400103;32;32832;-87
2022/07/06 03:52:39;;;;;;;4.70;4.18;;;;;;;20.56;65.05;99858.00;4394127;32;32805;-87
2022/07/06 03:55:09;;;;;;;5.32;4.82;;;;;;;20.90;63.62;99851.47;4390485;32;32680;-87
2022/07/06 03:57:40;;;;;;;5.18;4.68;;;;;;;20.29;65.78;99845.91;4395492;32;34055;-87
2022/07/06 04:00:09;;;;;;;6.43;3.87;;;;;;;20.82;63.71;99837.84;4396360;32;33356;-86
2022/07/06 04:02:40;;;;;;;8.60;4.50;;;;;;;20.55;64.13;99846.41;4382951;32;32863;-86
2022/07/06 04:05:10;;;;;;;8.93;4.70;;;;;;;20.69;64.36;99846.09;4412819;32;33906;-86
2022/07/06 04:07:39;;;;;;;7.03;5.03;;;;;;;20.73;63.96;99843.16;4395685;32;33853;-86
2022/07/06 04:10:08;;;;;;;6.70;5.18;;;;;;;20.75;63.73;99841.19;4382585;32;33566;-86
2022/07/06 04:12:42;;;;;;;7.87;4.32;;;;;;;21.07;62.25;99839.25;4408123;32;33709;-86
2022/07/06 04:15:11;;;;;;;6.12;4.70;;;;;;;21.17;62.39;99845.56;4401341;32;33825;-86
2022/07/06 04:17:53;;;;;;;4.50;3.87;;;;;;;21.23;62.52;99853.06;4395285;32;33074;-87
2022/07/06 04:20:25;;;;;;;4.78;4.37;;;;;;;21.34;62.44;99859.38;4401593;32;32806;-88
2022/07/06 04:22:54;;;;;;;5.62;4.35;;;;;;;21.43;62.50;99847.81;4404548;32;33225;-87
2022/07/06 04:25:25;;;;;;;7.93;4.27;;;;;;;21.32;62.22;99842.56;4384006;32;34447;-87
2022/07/06 04:27:54;;;;;;;8.77;4.45;;;;;;;21.57;61.57;99844.75;4394340;32;32917;-87
2022/07/06 04:30:22;;;;;;;8.07;5.15;;;;;;;21.50;61.49;99838.22;4386481;32;32291;-87
2022/07/06 04:32:50;;;;;;;8.20;5.18;;;;;;;21.26;62.12;99843.03;4388241;32;33798;-87
2022/07/06 04:35:18;;;;;;;4.80;4.05;;;;;;;21.70;60.69;99831.94;4413340;32;33644;-88
2022/07/06 04:37:47;;;;;;;4.85;4.28;;;;;;;21.89;60.35;99841.03;4404882;32;33078;-89
2022/07/06 04:40:16;;;;;;;6.60;4.30;;;;;;;21.78;60.45;99825.00;4400554;32;34132;-89
2022/07/06 04:42:47;;;;;;;4.70;4.30;;;;;;;22.01;59.77;99837.22;4397723;32;33899;-88
2022/07/06 04:45:15;;;;;;;4.28;3.80;;;;;;;21.84;60.52;99836.09;4409049;32;34049;-86
2022/07/06 04:47:44;;;;;;;6.87;4.45;;;;;;;22.17;59.29;99840.28;4410057;32;32465;-87
2022/07/06 04:50:12;;;;;;;5.25;4.75;;;;;;;22.30;58.94;99847.19;4410365;32;34382;-87
2022/07/06 04:52:45;;;;;;;9.23;4.62;;;;;;;22.39;58.37;99846.34;4398493;32;34529;-87
2022/07/06 04:55:14;;;;;;;5.30;4.80;;;;;;;22.34;58.54;99841.41;4409775;32;34595;-86
2022/07/06 04:57:44;;;;;;;6.22;4.12;;;;;;;22.20;59.13;99847.19;4397861;32;32278;-86
2022/07/06 05:00:13;;;;;;;6.95;4.45;;;;;;;22.27;59.01;99839.44;4397532;32;33348;-86
2022/07/06 05:02:42;;;;;;;8.95;4.35;;;;;;;22.23;59.21;99837.00;4409953;32;34250;-87
2022/07/06 05:05:12;;;;;;;10.30;4.80;;;;;;;22.55;58.15;99843.06;4410420;32;32566;-87
2022/07/06 05:07:39;;;;;;;8.02;3.90;;;;;;;22.65;57.65;99847.47;4409962;32;33761;-87
2022/07/06 05:10:10;;;;;;;5.07;4.68;;;;;;;22.48;58.26;99842.81;4410097;32;33040;-87
2022/07/06 05:12:39;;;;;;;5.32;4.07;;;;;;;22.46;58.08;99852.88;4419416;32;33485;-86
2022/07/06 05:15:08;;;;;;;5.60;4.55;;;;;;;22.41;58.09;99849.78;4396852;32;33043;-88
2022/07/06 05:17:37;;;;;;;8.10;4.70;;;;;;;22.21;58.55;99848.87;4409014;32;33243;-89
2022/07/06 05:20:06;;;;;;;8.98;4.50;;;;;;;22.32;58.39;99840.69;4422514;32;33513;-87
2022/07/06 05:22:34;;;;;;;5.57;4.65;;;;;;;22.54;57.97;99844.06;4389383;32;32937;-87
2022/07/06 05:25:10;;;;;;;10.60;5.00;;;;;;;22.78;57.29;99843.63;4410697;32;33909;-87
2022/07/06 05:27:49;;;;;;;6.68;4.35;;;;;;;22.51;58.28;99847.06;4409745;32;33500;-87
2022/07/06 05:30:18;;;;;;;5.35;4.18;;;;;;;22.62;57.51;99853.12;4409684;32;33332;-90
2022/07/06 05:32:49;;;;;;;5.25;4.45;;;;;;;22.80;57.85;99855.97;4408108;32;33627;-90
2022/07/06 05:35:17;;;;;;;6.82;4.32;;;;;;;23.02;56.15;99860.19;4407502;32;33503;-89
2022/07/06 05:38:07;;;;;;;5.22;4.72;;;;;;;22.74;57.25;99862.78;4403926;32;32475;-89
2022/07/06 05:40:38;;;;;;;7.43;6.07;;;;;;;22.55;57.37;99865.50;4401165;32;31984;-88
2022/07/06 05:43:07;;;;;;;5.85;4.37;;;;;;;22.31;58.19;99870.41;4386406;32;33088;-89
2022/07/06 05:45:38;;;;;;;5.78;4.30;;;;;;;22.75;57.40;99880.63;4401152;32;34690;-88
2022/07/06 05:50:54;;;;;;;5.43;4.93;;;;;;;22.93;56.65;99872.69;4404328;32;33500;-88
2022/07/06 05:53:30;;;;;;;6.53;4.40;;;;;;;22.75;57.07;99880.63;4391338;32;32935;-86
2022/07/06 05:55:58;;;;;;;6.30;4.40;;;;;;;22.83;57.05;99887.13;4404983;32;33989;-86
2022/07/06 05:58:31;;;;;;;11.30;5.15;;;;;;;22.76;57.27;99889.53;4385801;32;33168;-85
2022/07/06 06:01:03;;;;;;;4.93;4.32;;;;;;;23.25;55.24;99893.87;4411488;32;33080;-86
2022/07/06 06:03:33;;;;;;;4.80;4.35;;;;;;;23.20;55.65;99890.78;4394477;32;33690;-84
2022/07/06 06:08:41;;;;;;;5.70;4.57;;;;;;;23.44;56.01;99905.59;4406398;32;34192;-84
2022/07/06 06:11:12;;;;;;;6.18;4.62;;;;;;;23.91;54.13;99903.72;4406392;32;32872;-84
2022/07/06 06:13:44;;;;;;;6.25;4.20;;;;;;;24.03;53.57;99907.06;4401027;32;34678;-84
2022/07/06 06:16:13;;;;;;;5.15;4.55;;;;;;;23.96;54.57;99911.34;4390363;32;34312;-84
2022/07/06 06:18:42;;;;;;;8.27;5.22;;;;;;;23.42;55.59;99910.28;4368945;32;31670;-85
2022/07/06 06:21:11;;;;;;;8.63;5.72;;;;;;;23.34;55.75;99908.31;4403395;32;32270;-84
2022/07/06 06:23:42;;;;;;;7.45;5.55;;;;;;;23.84;54.29;99909.87;4390838;32;33472;-83
2022/07/06 06:26:11;;;;;;;7.45;5.72;;;;;;;24.07;53.25;99902.22;4392312;32;31720;-84
2022/07/06 06:28:41;;;;;;;6.18;4.97;;;;;;;23.67;54.85;99900.72;4402809;32;34133;-84
2022/07/06 06:31:10;;;;;;;6.28;5.65;;;;;;;24.17;54.19;99895.78;4401622;32;32568;-84
2022/07/06 06:33:38;;;;;;;7.87;5.35;;;;;;;24.62;53.14;99892.19;4400149;32;33162;-84
2022/07/06 06:36:07;;;;;;;5.32;4.82;;;;;;;24.75;52.21;99889.94;4396374;32;32685;-84
2022/07/06 06:38:37;;;;;;;8.75;5.80;;;;;;;24.60;52.69;99893.38;4398732;32;32646;-84
2022/07/06 06:41:05;;;;;;;6.65;5.20;;;;;;;24.60;52.17;99896.91;4403555;32;34075;-84
2022/07/06 06:43:38;;;;;;;6.78;4.85;;;;;;;24.86;51.68;99893.41;4392378;32;32667;-84
2022/07/06 06:46:06;;;;;;;7.80;5.70;;;;;;;25.01;51.43;99902.63;4404279;32;33306;-86
2022/07/06 06:48:36;;;;;;;6.40;4.95;;;;;;;24.78;51.99;99900.44;4398241;32;32852;-86
2022/07/06 06:51:04;;;;;;;5.20;4.70;;;;;;;24.71;52.78;99903.91;4412824;32;33369;-85
2022/07/06 06:53:32;;;;;;;10.40;4.80;;;;;;;24.82;51.67;99902.81;4392022;32;32825;-85
2022/07/06 06:56:08;;;;;;;6.12;4.80;;;;;;;24.92;52.54;99900.88;4408630;32;34034;-86
2022/07/06 06:58:39;;;;;;;5.62;5.10;;;;;;;24.97;51.30;99901.25;4399287;32;34730;-86
2022/07/06 07:01:32;;;;;;;5.10;4.70;;;;;;;25.24;50.52;99900.31;4408023;32;33235;-86
2022/07/06 07:04:01;;;;;;;4.30;3.90;;;;;;;25.34;50.79;99901.03;4393787;32;32433;-85
2022/07/06 07:06:30;;;;;;;7.95;4.72;;;;;;;25.71;51.31;99898.03;4401144;32;34406;-86
2022/07/06 07:08:59;;;;;;;6.72;4.62;;;;;;;25.79;50.39;99903.53;4393511;32;34326;-85
2022/07/06 07:11:28;;;;;;;3.67;3.35;;;;;;;25.44;50.41;99903.63;4413279;32;33063;-86
2022/07/06 07:13:57;;;;;;;6.57;4.10;;;;;;;25.84;48.95;99902.19;4404792;32;32358;-85
2022/07/06 07:16:25;;;;;;;4.25;3.83;;;;;;;26.15;47.98;99906.00;4414365;32;33943;-86
2022/07/06 07:18:55;;;;;;;6.12;3.50;;;;;;;26.63;48.51;99903.59;4402874;32;34149;-86
2022/07/06 07:21:25;;;;;;;5.57;4.55;;;;;;;26.46;48.00;99903.59;4403456;32;32365;-85
2022/07/06 07:23:54;;;;;;;7.37;4.20;;;;;;;26.76;46.85;99899.38;4391505;32;33948;-86
2022/07/06 07:26:21;;;;;;;5.40;4.53;;;;;;;26.70;47.47;99897.34;4404724;32;33255;-85
2022/07/06 07:28:52;;;;;;;6.00;3.78;;;;;;;26.84;46.63;99889.56;4382894;32;33474;-85
2022/07/06 07:31:21;;;;;;;4.10;3.50;;;;;;;26.99;45.61;99902.25;4404409;32;33403;-85
2022/07/06 07:33:56;;;;;;;5.80;3.50;;;;;;;27.14;45.26;99902.44;4377784;32;35081;-86
2022/07/06 07:36:29;;;;;;;4.62;3.65;;;;;;;27.26;45.24;99905.66;4413902;32;33648;-86
2022/07/06 07:38:58;;;;;;;4.78;3.87;;;;;;;27.43;44.70;99906.44;4402523;32;33796;-86
2022/07/06 07:41:26;;;;;;;5.35;4.55;;;;;;;27.58;44.77;99904.72;4403791;32;33275;-86
2022/07/06 07:43:54;;;;;;;5.43;3.45;;;;;;;27.41;44.93;99913.94;4393325;32;33147;-86
2022/07/06 07:46:24;;;;;;;4.32;3.75;;;;;;;27.47;44.38;99914.06;4382845;32;33475;-86
2022/07/06 07:48:54;;;;;;;5.87;3.63;;;;;;;27.51;44.55;99910.00;4385751;32;31890;-86
2022/07/06 07:53:58;;;;;;;4.87;3.92;;;;;;;27.83;44.18;99908.25;4391903;32;33269;-84
2022/07/06 07:56:32;;;;;;;6.20;3.80;;;;;;;27.96;43.93;99900.34;4394097;32;33852;-84
2022/07/06 07:59:01;;;;;;;3.80;3.50;;;;;;;28.12;43.56;99902.16;4389986;32;33455;-84
2022/07/06 08:01:29;;;;;;;6.00;4.50;;;;;;;28.40;42.86;99898.97;4377053;32;33225;-84
2022/07/06 08:03:59;;;;;;;3.75;3.08;;;;;;;28.33;42.19;99902.34;4386002;32;33770;-84
2022/07/06 08:06:28;;;;;;;4.72;4.10;;;;;;;28.59;42.02;99898.50;4379993;32;33419;-84
2022/07/06 08:08:58;;;;;;;4.12;3.58;;;;;;;28.61;41.91;99901.87;4383170;32;32316;-84
2022/07/06 08:11:27;;;;;;;5.37;3.58;;;;;;;28.50;42.27;99900.44;4388705;32;32288;-85
2022/07/06 08:14:01;;;;;;;4.40;2.85;;;;;;;28.54;41.93;99901.75;4402230;32;33800;-84
2022/07/06 08:16:35;;;;;;;4.57;3.28;;;;;;;28.67;40.03;99912.00;4400716;32;33709;-86
2022/07/06 08:19:03;;;;;;;3.55;3.08;;;;;;;28.22;41.75;99913.62;4388226;32;32315;-87
2022/07/06 08:21:39;;;;;;;5.05;3.58;;;;;;;28.50;40.92;99916.72;4398268;32;34782;-84
2022/07/06 08:24:10;;;;;;;4.07;3.20;;;;;;;28.64;40.65;99906.97;4390776;32;36104;-84
2022/07/06 08:26:40;;;;;;;4.30;3.47;;;;;;;28.87;39.70;99912.38;4404279;32;33338;-84
2022/07/06 08:29:08;;;;;;;5.35;3.50;;;;;;;28.84;40.02;99910.88;4389194;32;32859;-86
2022/07/06 08:31:44;;;;;;;5.72;4.07;;;;;;;29.06;40.97;99911.91;4384333;32;33475;-87
2022/07/06 08:34:24;;;;;;;4.15;3.75;;;;;;;28.44;41.67;99912.03;4391581;32;32313;-86
2022/07/06 08:37:01;;;;;;;4.20;3.80;;;;;;;28.84;40.58;99905.44;4390932;32;32650;-86
2022/07/06 08:39:30;;;;;;;4.35;3.85;;;;;;;28.84;40.54;99912.75;4381443;32;33354;-87
2022/07/06 08:42:00;;;;;;;4.40;4.00;;;;;;;28.96;41.29;99914.03;4386736;32;33419;-86
2022/07/06 08:44:29;;;;;;;4.22;3.85;;;;;;;28.73;42.37;99924.87;4388954;32;33339;-86
2022/07/06 08:47:07;;;;;;;4.57;4.05;;;;;;;28.88;40.00;99932.25;4400552;32;33703;-85
2022/07/06 08:49:38;;;;;;;4.97;4.12;;;;;;;29.09;40.47;99916.97;4394902;32;33687;-85
2022/07/06 08:52:07;;;;;;;5.85;4.20;;;;;;;29.46;39.64;99923.41;4405294;32;34002;-85
2022/07/06 08:54:43;;;;;;;4.50;3.72;;;;;;;29.47;39.74;99914.19;4400405;32;36034;-86
2022/07/06 08:57:13;;;;;;;14.65;4.50;;;;;;;29.34;39.72;99922.16;4402355;32;34086;-86
2022/07/06 08:59:44;;;;;;;;;;;;;;;29.65;39.18;99919.31;4391038;32;33270;-86
2022/07/06 09:02:13;;;;;;;4.75;3.40;;;;;;;29.37;39.29;99918.22;4390208;32;33383;-86
2022/07/06 09:04:50;;;;;;;3.70;3.12;;;;;;;29.63;38.20;99917.84;4405045;32;32764;-86
2022/07/06 09:07:28;;;;;;;8.18;3.80;;;;;;;30.03;37.14;99914.59;4420593;32;33561;-85
2022/07/06 09:10:18;;;;;;;6.12;4.37;;;;;;;29.47;37.48;99913.38;4418986;32;32836;-88
2022/07/06 09:12:48;;;;;;;3.80;3.50;;;;;;;29.97;38.04;99915.38;4407526;32;32667;-86
2022/07/06 09:15:16;;;;;;;7.87;3.12;;;;;;;29.62;37.79;99922.41;4401683;32;33606;-88
2022/07/06 09:17:45;;;;;;;7.35;3.95;;;;;;;29.75;37.17;99919.88;4401585;32;33119;-86
2022/07/06 09:20:14;;;;;;;3.40;3.10;;;;;;;29.61;39.80;99920.72;4399498;32;32985;-89
2022/07/06 09:25:20;;;;;;;5.45;3.65;;;;;;;29.97;36.05;99911.81;4400474;32;32365;-86
2022/07/06 09:27:54;;;;;;;3.28;2.97;;;;;;;30.14;36.79;99909.72;4401925;32;34095;-88
2022/07/06 09:30:26;;;;;;;3.12;2.53;;;;;;;29.91;33.94;99909.81;4406736;32;34056;-88
2022/07/06 09:32:57;;;;;;;6.63;3.30;;;;;;;29.80;34.63;99908.41;4393319;32;33157;-89
2022/07/06 09:35:36;;;;;;;3.50;3.00;;;;;;;29.66;34.15;99915.56;4403164;32;32694;-88
2022/07/06 09:38:14;;;;;;;3.87;3.17;;;;;;;29.17;35.50;99913.31;4402789;32;34387;-86
2022/07/06 09:40:46;;;;;;;3.62;3.22;;;;;;;29.21;37.23;99914.66;4413952;32;34221;-87
2022/07/06 09:43:22;;;;;;;4.65;2.42;;;;;;;29.54;37.89;99911.59;4403612;32;31092;-87
2022/07/06 09:45:55;;;;;;;3.03;2.30;;;;;;;29.64;34.04;99906.75;4402078;32;32522;-85
2022/07/06 09:48:26;;;;;;;4.00;2.60;;;;;;;29.39;36.70;99908.00;4391687;32;33815;-85
2022/07/06 09:51:02;;;;;;;6.47;3.30;;;;;;;29.93;35.96;99907.75;4388680;32;33425;-85
2022/07/06 09:53:40;;;;;;;3.58;3.28;;;;;;;30.15;35.56;99900.50;4396484;32;33076;-85
2022/07/06 09:56:09;;;;;;;4.57;2.95;;;;;;;30.46;34.43;99908.41;4389059;32;32832;-85
2022/07/06 09:58:39;;;;;;;4.80;3.28;;;;;;;30.37;34.66;99910.41;4400401;32;33930;-87
2022/07/06 10:01:29;;;;;;;3.97;3.33;;;;;;;30.43;35.19;99908.78;4398526;32;33549;-86
2022/07/06 10:03:58;;;;;;;3.17;2.70;;;;;;;30.26;36.33;99911.75;4395542;32;32173;-86
2022/07/06 10:06:34;;;;;;;3.97;3.05;;;;;;;30.61;34.48;99901.03;4372660;32;32525;-84
2022/07/06 10:09:06;;;;;;;14.27;3.53;;;;;;;30.68;33.21;99912.84;4403664;32;34467;-85
2022/07/06 10:11:54;;;;;;;6.55;3.17;;;;;;;30.46;33.81;99909.25;4394633;32;33423;-85
2022/07/06 10:14:26;;;;;;;8.20;2.78;;;;;;;30.48;33.27;99911.78;4383097;32;32850;-85
2022/07/06 10:16:56;;;;;;;2.90;2.60;;;;;;;30.54;33.19;99911.88;4398344;32;33244;-85
2022/07/06 10:19:30;;;;;;;2.90;2.60;;;;;;;30.57;32.11;99907.91;4384279;32;33060;-86
2022/07/06 10:22:02;;;;;;;6.43;2.25;;;;;;;30.63;31.17;99909.87;4408550;32;31631;-85
2022/07/06 10:24:39;;;;;;;8.15;2.60;;;;;;;30.88;30.76;99920.41;4395919;32;33267;-85
2022/07/06 10:27:10;;;;;;;3.42;2.28;;;;;;;30.82;28.00;99909.25;4411283;32;33548;-86
2022/07/06 10:29:39;;;;;;;4.65;2.25;;;;;;;30.45;28.46;99904.00;4417180;32;34031;-85
2022/07/06 10:32:08;;;;;;;2.50;2.30;;;;;;;30.30;30.47;99910.34;4390800;32;32912;-85
2022/07/06 10:34:37;;;;;;;2.65;2.45;;;;;;;30.70;29.39;99915.38;4419264;32;30993;-89
2022/07/06 10:37:25;;;;;;;2.85;2.40;;;;;;;30.71;28.77;99914.34;4389227;32;34201;-87
2022/07/06 10:42:58;;;;;;;4.22;2.60;;;;;;;31.10;27.78;99908.44;4410077;32;33359;-85
2022/07/06 10:45:27;;;;;;;3.78;2.05;;;;;;;31.43;28.56;99918.75;4385615;32;32375;-85
2022/07/06 10:48:11;;;;;;;3.85;2.83;;;;;;;31.29;27.27;99915.97;4423214;32;33669;-85
2022/07/06 10:50:47;;;;;;;3.45;2.80;;;;;;;31.67;26.87;99921.03;4422452;32;33560;-86
2022/07/06 10:55:57;;;;;;;2.37;2.17;;;;;;;31.78;26.28;99904.09;4406734;32;33165;-85
2022/07/06 10:58:50;;;;;;;2.58;1.85;;;;;;;31.77;24.97;99915.22;4403822;32;32702;-86
2022/07/06 11:01:29;;;;;;;2.53;2.33;;;;;;;31.96;25.14;99911.78;4402561;32;34190;-86
2022/07/06 11:03:57;;;;;;;4.10;2.28;;;;;;;32.12;25.64;99910.56;4402867;32;33007;-86
2022/07/06 11:06:26;;;;;;;2.90;2.60;;;;;;;31.94;26.25;99910.28;4414442;32;33406;-85
2022/07/06 11:09:01;;;;;;;4.15;2.72;;;;;;;31.85;25.63;99915.06;4420129;32;33814;-85
2022/07/06 11:11:33;;;;;;;2.40;2.20;;;;;;;31.66;28.39;99908.41;4399404;32;34014;-85
2022/07/06 11:14:16;;;;;;;2.70;2.30;;;;;;;31.64;26.05;99910.50;4414204;32;34798;-85
2022/07/06 11:16:49;;;;;;;2.45;2.25;;;;;;;31.89;27.17;99915.50;4405769;32;34317;-85
2022/07/06 11:19:23;;;;;;;3.50;2.50;;;;;;;32.06;25.22;99903.19;4415477;32;32629;-86
2022/07/06 11:21:59;;;;;;;3.47;2.55;;;;;;;31.91;25.32;99905.25;4406204;32;32934;-85
2022/07/06 11:24:33;;;;;;;4.32;2.40;;;;;;;31.61;25.76;99917.19;4379648;32;34177;-85
2022/07/06 11:27:03;;;;;;;2.37;2.17;;;;;;;31.68;24.88;99917.25;4417032;32;33124;-85
2022/07/06 11:32:23;;;;;;;3.62;2.08;;;;;;;31.72;24.42;99913.09;4415726;32;33436;-86
2022/07/06 11:34:57;;;;;;;3.55;2.42;;;;;;;31.69;24.65;99918.94;4399564;32;33926;-85
2022/07/06 11:37:27;;;;;;;8.73;2.30;;;;;;;31.59;25.10;99918.47;4404893;32;32288;-85
2022/07/06 11:39:56;;;;;;;3.97;2.75;;;;;;;31.41;25.22;99918.13;4410032;32;31768;-84
2022/07/06 11:45:03;;;;;;;3.47;1.92;;;;;;;31.89;23.62;99920.97;4416494;32;33062;-85
2022/07/06 11:47:32;;;;;;;2.10;1.93;;;;;;;32.13;22.86;99925.91;4411680;32;33177;-85
2022/07/06 11:52:40;;;;;;;1.87;1.77;;;;;;;32.29;23.09;99927.44;4397259;32;32935;-86
2022/07/06 11:55:14;;;;;;;4.32;2.05;;;;;;;32.04;23.21;99921.66;4391287;32;31842;-85
2022/07/06 11:57:42;;;;;;;2.78;1.87;;;;;;;32.19;21.67;99927.84;4395996;32;33317;-85
2022/07/06 12:00:11;;;;;;;1.90;1.80;;;;;;;32.27;21.42;99924.06;4395749;32;33273;-85
2022/07/06 12:02:39;;;;;;;3.67;1.92;;;;;;;31.83;23.97;99923.47;4396939;32;34016;-85
2022/07/06 12:05:10;;;;;;;4.40;2.15;;;;;;;32.16;22.29;99928.22;4400186;32;32655;-85
2022/07/06 12:07:41;;;;;;;2.55;2.35;;;;;;;32.34;22.07;99936.72;4416575;32;32948;-85
2022/07/06 12:10:10;;;;;;;4.32;2.05;;;;;;;32.19;22.05;99922.38;4406046;32;32887;-84
2022/07/06 12:12:40;;;;;;;2.70;2.15;;;;;;;32.39;23.46;99925.19;4390748;32;32918;-85
2022/07/06 12:15:08;;;;;;;2.40;2.20;;;;;;;32.24;23.43;99928.06;4394026;32;33366;-84
2022/07/06 12:17:43;;;;;;;2.12;1.92;;;;;;;32.05;23.54;99935.13;4381907;32;32534;-85